sensor_id;sensor_type;location;lat;lon;timestamp;P1;durP1;ratioP1;P2;durP2;ratioP2
13933;SDS011;7039;52.168;9.866;2023-01-15T00:01:27;1.17;;;1.00;;
13933;SDS011;7039;52.168;9.866;2023-01-15T00:03:55;1.20;;;1.10;;
13933;SDS011;7039;52.168;9.866;2023-01-15T00:06:24;2.00;;;1.30;;
13933;SDS011;7039;52.168;9.866;2023-01-15T00:08:53;4.40;;;1.30;;
13933;SDS011;7039;52.168;9.866;2023-01-15T00:11:20;2.10;;;1.50;;
13933;SDS011;7039;52.168;9.866;2023-01-15T00:13:47;2.30;;;1.83;;
13933;SDS011;7039;52.168;9.866;2023-01-15T00:16:15;1.97;;;1.40;;
13933;SDS011;7039;52.168;9.866;2023-01-15T00:18:43;6.53;;;4.30;;
13933;SDS011;7039;52.168;9.866;2023-01-15T00:21:14;1.83;;;1.73;;
13933;SDS011;7039;52.168;9.866;2023-01-15T00:23:40;1.93;;;1.60;;
13933;SDS011;7039;52.168;9.866;2023-01-15T00:26:27;1.87;;;1.60;;
13933;SDS011;7039;52.168;9.866;2023-01-15T00:29:13;2.57;;;1.33;;
13933;SDS011;7039;52.168;9.866;2023-01-15T00:31:40;3.07;;;1.60;;
13933;SDS011;7039;52.168;9.866;2023-01-15T00:34:08;2.60;;;1.60;;
13933;SDS011;7039;52.168;9.866;2023-01-15T00:36:35;3.33;;;1.63;;
13933;SDS011;7039;52.168;9.866;2023-01-15T00:39:02;5.43;;;1.90;;
13933;SDS011;7039;52.168;9.866;2023-01-15T00:41:30;2.50;;;0.83;;
13933;SDS011;7039;52.168;9.866;2023-01-15T00:43:57;0.93;;;0.80;;
13933;SDS011;7039;52.168;9.866;2023-01-15T00:46:23;1.13;;;0.70;;
13933;SDS011;7039;52.168;9.866;2023-01-15T00:48:50;0.60;;;0.60;;
13933;SDS011;7039;52.168;9.866;2023-01-15T00:51:16;0.80;;;0.80;;
13933;SDS011;7039;52.168;9.866;2023-01-15T00:53:43;1.97;;;0.70;;
13933;SDS011;7039;52.168;9.866;2023-01-15T00:56:09;1.10;;;0.63;;
13933;SDS011;7039;52.168;9.866;2023-01-15T00:58:37;0.83;;;0.70;;
13933;SDS011;7039;52.168;9.866;2023-01-15T01:01:04;1.30;;;0.70;;
13933;SDS011;7039;52.168;9.866;2023-01-15T01:03:30;3.03;;;0.80;;
13933;SDS011;7039;52.168;9.866;2023-01-15T01:05:58;2.47;;;1.10;;
13933;SDS011;7039;52.168;9.866;2023-01-15T01:08:26;2.70;;;0.80;;
13933;SDS011;7039;52.168;9.866;2023-01-15T01:10:59;1.40;;;0.70;;
13933;SDS011;7039;52.168;9.866;2023-01-15T01:13:26;3.53;;;1.00;;
13933;SDS011;7039;52.168;9.866;2023-01-15T01:15:54;1.87;;;0.90;;
13933;SDS011;7039;52.168;9.866;2023-01-15T01:18:21;2.33;;;0.87;;
13933;SDS011;7039;52.168;9.866;2023-01-15T01:20:47;0.60;;;0.60;;
13933;SDS011;7039;52.168;9.866;2023-01-15T01:23:14;2.73;;;0.60;;
13933;SDS011;7039;52.168;9.866;2023-01-15T01:25:40;0.90;;;0.77;;
13933;SDS011;7039;52.168;9.866;2023-01-15T01:28:07;0.60;;;0.60;;
13933;SDS011;7039;52.168;9.866;2023-01-15T01:30:33;2.00;;;0.70;;
13933;SDS011;7039;52.168;9.866;2023-01-15T01:33:01;2.30;;;0.80;;
13933;SDS011;7039;52.168;9.866;2023-01-15T01:35:28;3.23;;;1.93;;
13933;SDS011;7039;52.168;9.866;2023-01-15T01:37:54;2.27;;;2.07;;
13933;SDS011;7039;52.168;9.866;2023-01-15T01:40:21;0.80;;;0.80;;
13933;SDS011;7039;52.168;9.866;2023-01-15T01:42:47;1.70;;;1.23;;
13933;SDS011;7039;52.168;9.866;2023-01-15T01:45:23;1.37;;;0.80;;
13933;SDS011;7039;52.168;9.866;2023-01-15T01:47:52;0.60;;;0.60;;
13933;SDS011;7039;52.168;9.866;2023-01-15T01:50:24;1.30;;;0.70;;
13933;SDS011;7039;52.168;9.866;2023-01-15T01:52:55;4.30;;;3.23;;
13933;SDS011;7039;52.168;9.866;2023-01-15T01:55:24;3.80;;;1.47;;
13933;SDS011;7039;52.168;9.866;2023-01-15T01:57:53;2.03;;;1.60;;
13933;SDS011;7039;52.168;9.866;2023-01-15T02:00:23;0.90;;;0.90;;
13933;SDS011;7039;52.168;9.866;2023-01-15T02:02:50;1.43;;;0.80;;
13933;SDS011;7039;52.168;9.866;2023-01-15T02:05:20;1.37;;;1.27;;
13933;SDS011;7039;52.168;9.866;2023-01-15T02:07:53;1.90;;;0.70;;
13933;SDS011;7039;52.168;9.866;2023-01-15T02:10:20;0.57;;;0.57;;
13933;SDS011;7039;52.168;9.866;2023-01-15T02:12:48;0.70;;;0.50;;
13933;SDS011;7039;52.168;9.866;2023-01-15T02:15:22;0.63;;;0.50;;
13933;SDS011;7039;52.168;9.866;2023-01-15T02:17:54;0.83;;;0.50;;
13933;SDS011;7039;52.168;9.866;2023-01-15T02:20:31;1.47;;;0.53;;
13933;SDS011;7039;52.168;9.866;2023-01-15T02:23:10;0.40;;;0.40;;
13933;SDS011;7039;52.168;9.866;2023-01-15T02:26:04;0.40;;;0.40;;
13933;SDS011;7039;52.168;9.866;2023-01-15T02:28:47;1.00;;;0.80;;
13933;SDS011;7039;52.168;9.866;2023-01-15T02:31:26;1.20;;;0.50;;
13933;SDS011;7039;52.168;9.866;2023-01-15T02:34:13;2.03;;;0.50;;
13933;SDS011;7039;52.168;9.866;2023-01-15T02:36:59;1.27;;;0.50;;
13933;SDS011;7039;52.168;9.866;2023-01-15T02:39:33;0.50;;;0.40;;
13933;SDS011;7039;52.168;9.866;2023-01-15T02:42:04;1.30;;;0.70;;
13933;SDS011;7039;52.168;9.866;2023-01-15T02:44:36;0.67;;;0.57;;
13933;SDS011;7039;52.168;9.866;2023-01-15T02:47:07;0.43;;;0.43;;
13933;SDS011;7039;52.168;9.866;2023-01-15T02:49:36;0.73;;;0.63;;
13933;SDS011;7039;52.168;9.866;2023-01-15T02:52:06;0.50;;;0.50;;
13933;SDS011;7039;52.168;9.866;2023-01-15T02:54:36;2.20;;;0.70;;
13933;SDS011;7039;52.168;9.866;2023-01-15T02:57:08;0.50;;;0.50;;
13933;SDS011;7039;52.168;9.866;2023-01-15T02:59:38;1.73;;;0.80;;
13933;SDS011;7039;52.168;9.866;2023-01-15T03:02:09;0.60;;;0.60;;
13933;SDS011;7039;52.168;9.866;2023-01-15T03:04:40;3.17;;;0.70;;
13933;SDS011;7039;52.168;9.866;2023-01-15T03:07:11;0.73;;;0.70;;
13933;SDS011;7039;52.168;9.866;2023-01-15T03:09:44;0.60;;;0.60;;
13933;SDS011;7039;52.168;9.866;2023-01-15T03:12:14;1.50;;;1.07;;
13933;SDS011;7039;52.168;9.866;2023-01-15T03:14:48;1.50;;;0.70;;
13933;SDS011;7039;52.168;9.866;2023-01-15T03:17:22;0.80;;;0.63;;
13933;SDS011;7039;52.168;9.866;2023-01-15T03:19:53;0.80;;;0.80;;
13933;SDS011;7039;52.168;9.866;2023-01-15T03:22:25;0.90;;;0.63;;
13933;SDS011;7039;52.168;9.866;2023-01-15T03:24:56;1.90;;;0.70;;
13933;SDS011;7039;52.168;9.866;2023-01-15T03:27:27;0.70;;;0.70;;
13933;SDS011;7039;52.168;9.866;2023-01-15T03:29:57;3.00;;;0.80;;
13933;SDS011;7039;52.168;9.866;2023-01-15T03:32:28;0.70;;;0.70;;
13933;SDS011;7039;52.168;9.866;2023-01-15T03:34:55;2.73;;;0.90;;
13933;SDS011;7039;52.168;9.866;2023-01-15T03:37:23;2.10;;;1.33;;
13933;SDS011;7039;52.168;9.866;2023-01-15T03:39:51;1.47;;;1.20;;
13933;SDS011;7039;52.168;9.866;2023-01-15T03:42:19;7.53;;;7.03;;
13933;SDS011;7039;52.168;9.866;2023-01-15T03:44:56;2.63;;;1.50;;
13933;SDS011;7039;52.168;9.866;2023-01-15T03:47:34;2.90;;;2.70;;
13933;SDS011;7039;52.168;9.866;2023-01-15T03:50:09;1.83;;;1.73;;
13933;SDS011;7039;52.168;9.866;2023-01-15T03:52:44;3.00;;;2.80;;
13933;SDS011;7039;52.168;9.866;2023-01-15T03:55:16;1.20;;;0.80;;
13933;SDS011;7039;52.168;9.866;2023-01-15T03:57:47;2.10;;;0.73;;
13933;SDS011;7039;52.168;9.866;2023-01-15T04:00:20;0.90;;;0.80;;
13933;SDS011;7039;52.168;9.866;2023-01-15T04:02:50;1.60;;;0.93;;
13933;SDS011;7039;52.168;9.866;2023-01-15T04:05:20;2.40;;;2.20;;
13933;SDS011;7039;52.168;9.866;2023-01-15T04:07:48;1.77;;;1.67;;
13933;SDS011;7039;52.168;9.866;2023-01-15T04:10:16;1.33;;;1.03;;
13933;SDS011;7039;52.168;9.866;2023-01-15T04:12:43;0.87;;;0.80;;
13933;SDS011;7039;52.168;9.866;2023-01-15T04:15:10;1.70;;;0.60;;
13933;SDS011;7039;52.168;9.866;2023-01-15T04:17:38;2.03;;;1.50;;
13933;SDS011;7039;52.168;9.866;2023-01-15T04:20:05;3.07;;;1.80;;
13933;SDS011;7039;52.168;9.866;2023-01-15T04:22:32;3.73;;;3.53;;
13933;SDS011;7039;52.168;9.866;2023-01-15T04:25:00;0.77;;;0.60;;
13933;SDS011;7039;52.168;9.866;2023-01-15T04:27:26;2.43;;;1.63;;
13933;SDS011;7039;52.168;9.866;2023-01-15T04:29:53;1.73;;;1.63;;
13933;SDS011;7039;52.168;9.866;2023-01-15T04:32:19;1.03;;;0.80;;
13933;SDS011;7039;52.168;9.866;2023-01-15T04:34:47;2.57;;;1.00;;
13933;SDS011;7039;52.168;9.866;2023-01-15T04:37:14;1.40;;;1.30;;
13933;SDS011;7039;52.168;9.866;2023-01-15T04:39:41;2.50;;;1.50;;
13933;SDS011;7039;52.168;9.866;2023-01-15T04:42:08;2.23;;;1.73;;
13933;SDS011;7039;52.168;9.866;2023-01-15T04:44:54;4.20;;;3.90;;
13933;SDS011;7039;52.168;9.866;2023-01-15T04:47:21;3.73;;;0.80;;
13933;SDS011;7039;52.168;9.866;2023-01-15T04:49:49;1.63;;;1.27;;
13933;SDS011;7039;52.168;9.866;2023-01-15T04:52:15;1.67;;;1.00;;
13933;SDS011;7039;52.168;9.866;2023-01-15T04:54:42;2.60;;;1.50;;
13933;SDS011;7039;52.168;9.866;2023-01-15T04:57:09;1.37;;;0.70;;
13933;SDS011;7039;52.168;9.866;2023-01-15T04:59:36;2.90;;;1.17;;
13933;SDS011;7039;52.168;9.866;2023-01-15T05:02:03;2.37;;;0.90;;
13933;SDS011;7039;52.168;9.866;2023-01-15T05:04:29;1.17;;;1.07;;
13933;SDS011;7039;52.168;9.866;2023-01-15T05:06:57;3.30;;;0.93;;
13933;SDS011;7039;52.168;9.866;2023-01-15T05:09:23;3.27;;;0.87;;
13933;SDS011;7039;52.168;9.866;2023-01-15T05:11:50;1.30;;;0.70;;
13933;SDS011;7039;52.168;9.866;2023-01-15T05:14:16;1.63;;;1.10;;
13933;SDS011;7039;52.168;9.866;2023-01-15T05:16:43;2.97;;;1.60;;
13933;SDS011;7039;52.168;9.866;2023-01-15T05:19:09;1.90;;;0.90;;
13933;SDS011;7039;52.168;9.866;2023-01-15T05:21:38;1.93;;;0.70;;
13933;SDS011;7039;52.168;9.866;2023-01-15T05:24:09;1.90;;;0.90;;
13933;SDS011;7039;52.168;9.866;2023-01-15T05:26:38;2.17;;;0.90;;
13933;SDS011;7039;52.168;9.866;2023-01-15T05:29:04;3.83;;;1.27;;
13933;SDS011;7039;52.168;9.866;2023-01-15T05:31:31;1.93;;;0.80;;
13933;SDS011;7039;52.168;9.866;2023-01-15T05:33:58;3.33;;;0.90;;
13933;SDS011;7039;52.168;9.866;2023-01-15T05:36:26;4.60;;;0.83;;
13933;SDS011;7039;52.168;9.866;2023-01-15T05:38:54;2.00;;;1.07;;
13933;SDS011;7039;52.168;9.866;2023-01-15T05:41:25;3.03;;;1.10;;
13933;SDS011;7039;52.168;9.866;2023-01-15T05:44:10;3.03;;;0.90;;
13933;SDS011;7039;52.168;9.866;2023-01-15T05:46:38;2.53;;;1.40;;
13933;SDS011;7039;52.168;9.866;2023-01-15T05:49:06;3.53;;;1.13;;
13933;SDS011;7039;52.168;9.866;2023-01-15T05:51:35;9.30;;;1.20;;
13933;SDS011;7039;52.168;9.866;2023-01-15T05:54:03;3.67;;;1.67;;
13933;SDS011;7039;52.168;9.866;2023-01-15T05:56:34;3.20;;;1.20;;
13933;SDS011;7039;52.168;9.866;2023-01-15T05:59:02;2.13;;;0.93;;
13933;SDS011;7039;52.168;9.866;2023-01-15T06:01:28;7.20;;;1.00;;
13933;SDS011;7039;52.168;9.866;2023-01-15T06:03:56;4.50;;;0.90;;
13933;SDS011;7039;52.168;9.866;2023-01-15T06:06:23;3.23;;;1.27;;
13933;SDS011;7039;52.168;9.866;2023-01-15T06:08:49;2.37;;;1.50;;
13933;SDS011;7039;52.168;9.866;2023-01-15T06:11:16;4.27;;;1.10;;
13933;SDS011;7039;52.168;9.866;2023-01-15T06:13:44;4.97;;;2.50;;
13933;SDS011;7039;52.168;9.866;2023-01-15T06:16:10;4.20;;;1.00;;
13933;SDS011;7039;52.168;9.866;2023-01-15T06:18:37;2.57;;;1.00;;
13933;SDS011;7039;52.168;9.866;2023-01-15T06:21:03;7.67;;;1.00;;
13933;SDS011;7039;52.168;9.866;2023-01-15T06:23:31;8.47;;;1.37;;
13933;SDS011;7039;52.168;9.866;2023-01-15T06:26:00;4.03;;;1.77;;
13933;SDS011;7039;52.168;9.866;2023-01-15T06:28:27;5.70;;;1.23;;
13933;SDS011;7039;52.168;9.866;2023-01-15T06:30:55;3.50;;;3.20;;
13933;SDS011;7039;52.168;9.866;2023-01-15T06:33:22;8.50;;;1.40;;
13933;SDS011;7039;52.168;9.866;2023-01-15T06:35:48;2.77;;;0.90;;
13933;SDS011;7039;52.168;9.866;2023-01-15T06:38:16;6.47;;;1.27;;
13933;SDS011;7039;52.168;9.866;2023-01-15T06:40:42;4.03;;;1.40;;
13933;SDS011;7039;52.168;9.866;2023-01-15T06:43:09;4.73;;;1.23;;
13933;SDS011;7039;52.168;9.866;2023-01-15T06:45:55;3.90;;;1.40;;
13933;SDS011;7039;52.168;9.866;2023-01-15T06:48:45;1.90;;;1.13;;
13933;SDS011;7039;52.168;9.866;2023-01-15T06:51:12;5.00;;;1.10;;
13933;SDS011;7039;52.168;9.866;2023-01-15T06:53:42;2.87;;;1.20;;
13933;SDS011;7039;52.168;9.866;2023-01-15T06:56:09;7.30;;;1.30;;
13933;SDS011;7039;52.168;9.866;2023-01-15T06:58:35;4.93;;;2.13;;
13933;SDS011;7039;52.168;9.866;2023-01-15T07:01:07;5.07;;;1.70;;
13933;SDS011;7039;52.168;9.866;2023-01-15T07:03:34;8.10;;;1.60;;
13933;SDS011;7039;52.168;9.866;2023-01-15T07:06:04;3.90;;;1.20;;
13933;SDS011;7039;52.168;9.866;2023-01-15T07:08:31;6.83;;;1.70;;
13933;SDS011;7039;52.168;9.866;2023-01-15T07:11:00;3.27;;;1.50;;
13933;SDS011;7039;52.168;9.866;2023-01-15T07:13:27;3.57;;;1.17;;
13933;SDS011;7039;52.168;9.866;2023-01-15T07:15:54;3.70;;;1.90;;
13933;SDS011;7039;52.168;9.866;2023-01-15T07:18:22;6.80;;;1.53;;
13933;SDS011;7039;52.168;9.866;2023-01-15T07:20:48;2.17;;;1.30;;
13933;SDS011;7039;52.168;9.866;2023-01-15T07:23:15;4.87;;;1.23;;
13933;SDS011;7039;52.168;9.866;2023-01-15T07:25:41;1.33;;;1.17;;
13933;SDS011;7039;52.168;9.866;2023-01-15T07:28:07;3.33;;;1.20;;
13933;SDS011;7039;52.168;9.866;2023-01-15T07:30:34;4.30;;;1.67;;
13933;SDS011;7039;52.168;9.866;2023-01-15T07:33:00;6.33;;;1.57;;
13933;SDS011;7039;52.168;9.866;2023-01-15T07:35:28;3.27;;;1.70;;
13933;SDS011;7039;52.168;9.866;2023-01-15T07:37:55;3.53;;;1.10;;
13933;SDS011;7039;52.168;9.866;2023-01-15T07:40:22;2.50;;;1.30;;
13933;SDS011;7039;52.168;9.866;2023-01-15T07:42:48;2.23;;;1.40;;
13933;SDS011;7039;52.168;9.866;2023-01-15T07:45:32;5.67;;;1.60;;
13933;SDS011;7039;52.168;9.866;2023-01-15T07:48:16;3.63;;;2.63;;
13933;SDS011;7039;52.168;9.866;2023-01-15T07:51:01;3.87;;;2.13;;
13933;SDS011;7039;52.168;9.866;2023-01-15T07:53:28;5.17;;;1.87;;
13933;SDS011;7039;52.168;9.866;2023-01-15T07:55:55;4.67;;;1.83;;
13933;SDS011;7039;52.168;9.866;2023-01-15T07:58:21;3.17;;;2.33;;
13933;SDS011;7039;52.168;9.866;2023-01-15T08:00:48;5.50;;;1.63;;
13933;SDS011;7039;52.168;9.866;2023-01-15T08:03:14;3.87;;;1.47;;
13933;SDS011;7039;52.168;9.866;2023-01-15T08:05:41;4.73;;;2.60;;
13933;SDS011;7039;52.168;9.866;2023-01-15T08:08:14;5.77;;;1.13;;
13933;SDS011;7039;52.168;9.866;2023-01-15T08:10:41;2.73;;;1.17;;
13933;SDS011;7039;52.168;9.866;2023-01-15T08:13:30;5.87;;;1.33;;
13933;SDS011;7039;52.168;9.866;2023-01-15T08:16:14;7.13;;;1.63;;
13933;SDS011;7039;52.168;9.866;2023-01-15T08:18:41;6.83;;;1.33;;
13933;SDS011;7039;52.168;9.866;2023-01-15T08:21:12;8.00;;;1.50;;
13933;SDS011;7039;52.168;9.866;2023-01-15T08:23:40;6.77;;;1.40;;
13933;SDS011;7039;52.168;9.866;2023-01-15T08:26:07;2.73;;;1.10;;
13933;SDS011;7039;52.168;9.866;2023-01-15T08:28:34;3.87;;;1.30;;
13933;SDS011;7039;52.168;9.866;2023-01-15T08:31:00;5.20;;;1.50;;
13933;SDS011;7039;52.168;9.866;2023-01-15T08:33:27;5.87;;;1.20;;
13933;SDS011;7039;52.168;9.866;2023-01-15T08:35:53;3.53;;;1.23;;
13933;SDS011;7039;52.168;9.866;2023-01-15T08:38:19;5.60;;;1.77;;
13933;SDS011;7039;52.168;9.866;2023-01-15T08:40:51;1.70;;;1.10;;
13933;SDS011;7039;52.168;9.866;2023-01-15T08:43:24;3.63;;;1.37;;
13933;SDS011;7039;52.168;9.866;2023-01-15T08:45:50;6.53;;;1.30;;
13933;SDS011;7039;52.168;9.866;2023-01-15T08:48:21;2.10;;;1.23;;
13933;SDS011;7039;52.168;9.866;2023-01-15T08:50:48;2.10;;;0.90;;
13933;SDS011;7039;52.168;9.866;2023-01-15T08:53:15;3.33;;;1.30;;
13933;SDS011;7039;52.168;9.866;2023-01-15T08:55:43;6.33;;;1.43;;
13933;SDS011;7039;52.168;9.866;2023-01-15T08:58:11;7.13;;;1.60;;
13933;SDS011;7039;52.168;9.866;2023-01-15T09:00:37;7.47;;;1.50;;
13933;SDS011;7039;52.168;9.866;2023-01-15T09:03:03;6.43;;;2.20;;
13933;SDS011;7039;52.168;9.866;2023-01-15T09:05:30;4.30;;;1.10;;
13933;SDS011;7039;52.168;9.866;2023-01-15T09:07:56;4.00;;;1.20;;
13933;SDS011;7039;52.168;9.866;2023-01-15T09:10:23;6.73;;;1.53;;
13933;SDS011;7039;52.168;9.866;2023-01-15T09:12:50;3.10;;;1.47;;
13933;SDS011;7039;52.168;9.866;2023-01-15T09:15:18;4.33;;;1.47;;
13933;SDS011;7039;52.168;9.866;2023-01-15T09:17:45;2.63;;;1.30;;
13933;SDS011;7039;52.168;9.866;2023-01-15T09:20:13;5.13;;;1.57;;
13933;SDS011;7039;52.168;9.866;2023-01-15T09:22:39;4.60;;;1.50;;
13933;SDS011;7039;52.168;9.866;2023-01-15T09:25:06;6.53;;;2.77;;
13933;SDS011;7039;52.168;9.866;2023-01-15T09:27:33;9.27;;;1.97;;
13933;SDS011;7039;52.168;9.866;2023-01-15T09:30:02;5.17;;;1.53;;
13933;SDS011;7039;52.168;9.866;2023-01-15T09:32:33;11.00;;;7.20;;
13933;SDS011;7039;52.168;9.866;2023-01-15T09:35:00;5.90;;;3.87;;
13933;SDS011;7039;52.168;9.866;2023-01-15T09:37:26;5.33;;;2.07;;
13933;SDS011;7039;52.168;9.866;2023-01-15T09:39:53;3.13;;;1.30;;
13933;SDS011;7039;52.168;9.866;2023-01-15T09:42:25;5.97;;;1.50;;
13933;SDS011;7039;52.168;9.866;2023-01-15T09:45:08;1.40;;;1.10;;
13933;SDS011;7039;52.168;9.866;2023-01-15T09:47:42;5.10;;;0.73;;
13933;SDS011;7039;52.168;9.866;2023-01-15T09:50:21;2.73;;;1.00;;
13933;SDS011;7039;52.168;9.866;2023-01-15T09:53:04;0.90;;;0.70;;
13933;SDS011;7039;52.168;9.866;2023-01-15T09:55:49;3.00;;;1.27;;
13933;SDS011;7039;52.168;9.866;2023-01-15T09:58:21;5.80;;;1.17;;
13933;SDS011;7039;52.168;9.866;2023-01-15T10:00:55;3.87;;;1.77;;
13933;SDS011;7039;52.168;9.866;2023-01-15T10:03:28;28.43;;;20.97;;
13933;SDS011;7039;52.168;9.866;2023-01-15T10:06:06;22.40;;;10.17;;
13933;SDS011;7039;52.168;9.866;2023-01-15T10:08:37;24.47;;;13.50;;
13933;SDS011;7039;52.168;9.866;2023-01-15T10:11:17;13.20;;;6.33;;
13933;SDS011;7039;52.168;9.866;2023-01-15T10:14:13;53.70;;;18.73;;
13933;SDS011;7039;52.168;9.866;2023-01-15T10:16:45;56.43;;;17.37;;
13933;SDS011;7039;52.168;9.866;2023-01-15T10:19:13;17.03;;;8.33;;
13933;SDS011;7039;52.168;9.866;2023-01-15T10:21:40;13.40;;;10.93;;
13933;SDS011;7039;52.168;9.866;2023-01-15T10:24:16;17.27;;;12.10;;
13933;SDS011;7039;52.168;9.866;2023-01-15T10:26:45;19.67;;;17.63;;
13933;SDS011;7039;52.168;9.866;2023-01-15T10:29:20;30.20;;;9.33;;
13933;SDS011;7039;52.168;9.866;2023-01-15T10:31:51;7.20;;;5.20;;
13933;SDS011;7039;52.168;9.866;2023-01-15T10:37:31;29.87;;;10.30;;
13933;SDS011;7039;52.168;9.866;2023-01-15T10:40:16;12.03;;;6.90;;
13933;SDS011;7039;52.168;9.866;2023-01-15T10:42:53;8.93;;;1.53;;
13933;SDS011;7039;52.168;9.866;2023-01-15T10:45:25;2.53;;;1.80;;
13933;SDS011;7039;52.168;9.866;2023-01-15T10:47:56;4.63;;;1.40;;
13933;SDS011;7039;52.168;9.866;2023-01-15T10:50:29;5.73;;;2.93;;
13933;SDS011;7039;52.168;9.866;2023-01-15T10:53:00;1.23;;;1.10;;
13933;SDS011;7039;52.168;9.866;2023-01-15T10:55:33;3.27;;;1.43;;
13933;SDS011;7039;52.168;9.866;2023-01-15T10:58:06;3.13;;;1.23;;
13933;SDS011;7039;52.168;9.866;2023-01-15T11:00:39;2.47;;;1.40;;
13933;SDS011;7039;52.168;9.866;2023-01-15T11:03:11;5.67;;;1.70;;
13933;SDS011;7039;52.168;9.866;2023-01-15T11:05:43;1.50;;;1.00;;
13933;SDS011;7039;52.168;9.866;2023-01-15T11:08:13;3.57;;;1.60;;
13933;SDS011;7039;52.168;9.866;2023-01-15T11:10:46;7.67;;;2.97;;
13933;SDS011;7039;52.168;9.866;2023-01-15T11:13:16;44.07;;;20.33;;
13933;SDS011;7039;52.168;9.866;2023-01-15T11:16:04;46.97;;;15.53;;
13933;SDS011;7039;52.168;9.866;2023-01-15T11:18:56;8.90;;;2.90;;
13933;SDS011;7039;52.168;9.866;2023-01-15T11:21:47;6.20;;;3.17;;
13933;SDS011;7039;52.168;9.866;2023-01-15T11:24:15;9.70;;;3.97;;
13933;SDS011;7039;52.168;9.866;2023-01-15T11:26:44;6.00;;;1.50;;
13933;SDS011;7039;52.168;9.866;2023-01-15T11:29:14;2.87;;;1.60;;
13933;SDS011;7039;52.168;9.866;2023-01-15T11:31:52;3.87;;;1.33;;
13933;SDS011;7039;52.168;9.866;2023-01-15T11:34:20;5.33;;;1.53;;
13933;SDS011;7039;52.168;9.866;2023-01-15T11:37:01;3.90;;;0.83;;
13933;SDS011;7039;52.168;9.866;2023-01-15T11:39:29;1.00;;;0.87;;
13933;SDS011;7039;52.168;9.866;2023-01-15T11:42:00;3.77;;;1.10;;
13933;SDS011;7039;52.168;9.866;2023-01-15T11:44:54;4.57;;;1.20;;
13933;SDS011;7039;52.168;9.866;2023-01-15T11:47:49;1.57;;;1.00;;
13933;SDS011;7039;52.168;9.866;2023-01-15T11:50:34;1.27;;;0.73;;
13933;SDS011;7039;52.168;9.866;2023-01-15T11:53:31;2.67;;;0.70;;
13933;SDS011;7039;52.168;9.866;2023-01-15T11:56:13;2.77;;;0.90;;
13933;SDS011;7039;52.168;9.866;2023-01-15T11:58:44;0.60;;;0.60;;
13933;SDS011;7039;52.168;9.866;2023-01-15T12:01:19;3.33;;;0.90;;
13933;SDS011;7039;52.168;9.866;2023-01-15T12:03:49;1.10;;;0.70;;
13933;SDS011;7039;52.168;9.866;2023-01-15T12:06:19;2.17;;;0.80;;
13933;SDS011;7039;52.168;9.866;2023-01-15T12:08:49;2.60;;;0.97;;
13933;SDS011;7039;52.168;9.866;2023-01-15T12:11:30;2.83;;;0.73;;
13933;SDS011;7039;52.168;9.866;2023-01-15T12:17:23;1.47;;;0.77;;
13933;SDS011;7039;52.168;9.866;2023-01-15T12:20:00;3.43;;;0.83;;
13933;SDS011;7039;52.168;9.866;2023-01-15T12:22:39;1.70;;;0.70;;
13933;SDS011;7039;52.168;9.866;2023-01-15T12:25:27;3.77;;;1.10;;
13933;SDS011;7039;52.168;9.866;2023-01-15T12:28:03;3.83;;;1.03;;
13933;SDS011;7039;52.168;9.866;2023-01-15T12:30:38;2.10;;;0.73;;
13933;SDS011;7039;52.168;9.866;2023-01-15T12:33:12;1.67;;;0.60;;
13933;SDS011;7039;52.168;9.866;2023-01-15T12:35:47;2.47;;;1.17;;
13933;SDS011;7039;52.168;9.866;2023-01-15T12:38:21;1.40;;;0.57;;
13933;SDS011;7039;52.168;9.866;2023-01-15T12:41:01;8.27;;;0.93;;
13933;SDS011;7039;52.168;9.866;2023-01-15T12:43:35;1.27;;;0.60;;
13933;SDS011;7039;52.168;9.866;2023-01-15T12:46:21;2.80;;;0.97;;
13933;SDS011;7039;52.168;9.866;2023-01-15T12:48:55;1.33;;;1.03;;
13933;SDS011;7039;52.168;9.866;2023-01-15T12:51:28;8.87;;;1.17;;
13933;SDS011;7039;52.168;9.866;2023-01-15T12:54:00;4.00;;;0.80;;
13933;SDS011;7039;52.168;9.866;2023-01-15T12:56:35;2.00;;;0.70;;
13933;SDS011;7039;52.168;9.866;2023-01-15T12:59:09;1.30;;;0.93;;
13933;SDS011;7039;52.168;9.866;2023-01-15T13:01:45;1.70;;;0.80;;
13933;SDS011;7039;52.168;9.866;2023-01-15T13:04:19;3.20;;;0.80;;
13933;SDS011;7039;52.168;9.866;2023-01-15T13:06:50;7.53;;;1.20;;
13933;SDS011;7039;52.168;9.866;2023-01-15T13:09:29;3.27;;;0.90;;
13933;SDS011;7039;52.168;9.866;2023-01-15T13:14:38;3.03;;;1.00;;
13933;SDS011;7039;52.168;9.866;2023-01-15T13:17:06;7.63;;;1.23;;
13933;SDS011;7039;52.168;9.866;2023-01-15T13:19:44;1.87;;;0.97;;
13933;SDS011;7039;52.168;9.866;2023-01-15T13:22:21;3.73;;;1.23;;
13933;SDS011;7039;52.168;9.866;2023-01-15T13:25:04;5.40;;;2.33;;
13933;SDS011;7039;52.168;9.866;2023-01-15T13:27:54;3.13;;;1.00;;
13933;SDS011;7039;52.168;9.866;2023-01-15T13:30:32;8.13;;;2.30;;
13933;SDS011;7039;52.168;9.866;2023-01-15T13:33:11;2.50;;;1.27;;
13933;SDS011;7039;52.168;9.866;2023-01-15T13:35:48;3.90;;;2.10;;
13933;SDS011;7039;52.168;9.866;2023-01-15T13:38:19;4.57;;;2.67;;
13933;SDS011;7039;52.168;9.866;2023-01-15T13:40:50;10.13;;;3.13;;
13933;SDS011;7039;52.168;9.866;2023-01-15T13:43:25;7.73;;;3.63;;
13933;SDS011;7039;52.168;9.866;2023-01-15T13:45:55;8.33;;;3.10;;
13933;SDS011;7039;52.168;9.866;2023-01-15T13:48:24;5.40;;;1.80;;
13933;SDS011;7039;52.168;9.866;2023-01-15T13:50:56;3.23;;;1.77;;
13933;SDS011;7039;52.168;9.866;2023-01-15T13:53:25;2.43;;;1.07;;
13933;SDS011;7039;52.168;9.866;2023-01-15T13:55:54;4.20;;;0.77;;
13933;SDS011;7039;52.168;9.866;2023-01-15T13:58:28;2.30;;;0.80;;
13933;SDS011;7039;52.168;9.866;2023-01-15T14:01:20;3.33;;;1.10;;
13933;SDS011;7039;52.168;9.866;2023-01-15T14:03:53;2.00;;;1.00;;
13933;SDS011;7039;52.168;9.866;2023-01-15T14:06:39;3.30;;;0.90;;
13933;SDS011;7039;52.168;9.866;2023-01-15T14:09:11;2.03;;;1.10;;
13933;SDS011;7039;52.168;9.866;2023-01-15T14:11:41;1.50;;;0.80;;
13933;SDS011;7039;52.168;9.866;2023-01-15T14:14:38;3.83;;;1.20;;
13933;SDS011;7039;52.168;9.866;2023-01-15T14:20:22;3.23;;;1.20;;
13933;SDS011;7039;52.168;9.866;2023-01-15T14:23:04;3.50;;;1.00;;
13933;SDS011;7039;52.168;9.866;2023-01-15T14:25:44;2.87;;;1.00;;
13933;SDS011;7039;52.168;9.866;2023-01-15T14:28:24;5.83;;;1.17;;
13933;SDS011;7039;52.168;9.866;2023-01-15T14:34:11;3.20;;;1.10;;
13933;SDS011;7039;52.168;9.866;2023-01-15T14:36:45;4.43;;;1.10;;
13933;SDS011;7039;52.168;9.866;2023-01-15T14:39:26;2.83;;;0.77;;
13933;SDS011;7039;52.168;9.866;2023-01-15T14:41:57;3.47;;;1.10;;
13933;SDS011;7039;52.168;9.866;2023-01-15T14:44:46;2.43;;;1.00;;
13933;SDS011;7039;52.168;9.866;2023-01-15T14:47:24;3.17;;;1.23;;
13933;SDS011;7039;52.168;9.866;2023-01-15T14:52:57;8.13;;;1.30;;
13933;SDS011;7039;52.168;9.866;2023-01-15T14:55:28;3.20;;;0.73;;
13933;SDS011;7039;52.168;9.866;2023-01-15T14:57:56;4.13;;;1.07;;
13933;SDS011;7039;52.168;9.866;2023-01-15T15:00:29;2.67;;;1.03;;
13933;SDS011;7039;52.168;9.866;2023-01-15T15:03:01;4.77;;;0.80;;
13933;SDS011;7039;52.168;9.866;2023-01-15T15:05:35;1.93;;;0.80;;
13933;SDS011;7039;52.168;9.866;2023-01-15T15:08:01;1.83;;;0.80;;
13933;SDS011;7039;52.168;9.866;2023-01-15T15:10:30;4.03;;;1.00;;
13933;SDS011;7039;52.168;9.866;2023-01-15T15:13:00;9.40;;;3.53;;
13933;SDS011;7039;52.168;9.866;2023-01-15T15:15:34;18.10;;;6.57;;
13933;SDS011;7039;52.168;9.866;2023-01-15T15:18:12;7.07;;;2.70;;
13933;SDS011;7039;52.168;9.866;2023-01-15T15:20:49;11.67;;;4.30;;
13933;SDS011;7039;52.168;9.866;2023-01-15T15:23:21;14.33;;;5.33;;
13933;SDS011;7039;52.168;9.866;2023-01-15T15:25:55;34.53;;;13.37;;
13933;SDS011;7039;52.168;9.866;2023-01-15T15:28:23;8.47;;;3.30;;
13933;SDS011;7039;52.168;9.866;2023-01-15T15:30:50;7.53;;;3.10;;
13933;SDS011;7039;52.168;9.866;2023-01-15T15:33:29;12.57;;;4.07;;
13933;SDS011;7039;52.168;9.866;2023-01-15T15:36:04;8.40;;;2.00;;
13933;SDS011;7039;52.168;9.866;2023-01-15T15:38:33;7.07;;;3.73;;
13933;SDS011;7039;52.168;9.866;2023-01-15T15:41:03;31.37;;;9.07;;
13933;SDS011;7039;52.168;9.866;2023-01-15T15:43:34;5.77;;;2.77;;
13933;SDS011;7039;52.168;9.866;2023-01-15T15:46:37;14.53;;;6.70;;